sensor_id;sensor_type;location;lat;lon;timestamp;P1;P2;P0
69746;PMS7003;57018;50.278;19.134;2023-09-19T00:00:48;25.00;24.00;16.50
69746;PMS7003;57018;50.278;19.134;2023-09-19T00:03:18;29.00;26.50;18.50
69746;PMS7003;57018;50.278;19.134;2023-09-19T00:05:49;28.00;23.00;16.00
69746;PMS7003;57018;50.278;19.134;2023-09-19T00:08:19;35.50;28.50;17.50
69746;PMS7003;57018;50.278;19.134;2023-09-19T00:10:51;28.00;25.50;16.00
69746;PMS7003;57018;50.278;19.134;2023-09-19T00:13:25;26.50;24.00;16.50
69746;PMS7003;57018;50.278;19.134;2023-09-19T00:15:55;28.00;26.50;18.00
69746;PMS7003;57018;50.278;19.134;2023-09-19T00:18:25;30.00;29.00;17.00
69746;PMS7003;57018;50.278;19.134;2023-09-19T00:20:59;28.00;24.00;15.00
69746;PMS7003;57018;50.278;19.134;2023-09-19T00:23:31;26.67;24.00;16.67
69746;PMS7003;57018;50.278;19.134;2023-09-19T00:26:01;25.50;21.50;14.50
69746;PMS7003;57018;50.278;19.134;2023-09-19T00:28:31;28.00;26.00;16.00
69746;PMS7003;57018;50.278;19.134;2023-09-19T00:31:02;24.00;23.00;16.50
69746;PMS7003;57018;50.278;19.134;2023-09-19T00:33:32;26.00;26.00;18.00
69746;PMS7003;57018;50.278;19.134;2023-09-19T00:36:02;30.00;26.00;17.00
69746;PMS7003;57018;50.278;19.134;2023-09-19T00:38:32;25.00;22.00;16.00
69746;PMS7003;57018;50.278;19.134;2023-09-19T00:41:02;27.50;22.50;16.00
69746;PMS7003;57018;50.278;19.134;2023-09-19T00:43:32;29.00;25.00;17.50
69746;PMS7003;57018;50.278;19.134;2023-09-19T00:46:02;25.00;23.00;16.00
69746;PMS7003;57018;50.278;19.134;2023-09-19T00:48:33;27.00;23.00;15.00
69746;PMS7003;57018;50.278;19.134;2023-09-19T00:51:10;22.50;20.00;17.00
69746;PMS7003;57018;50.278;19.134;2023-09-19T00:53:45;33.00;29.00;18.00
69746;PMS7003;57018;50.278;19.134;2023-09-19T00:56:16;32.50;31.00;21.50
69746;PMS7003;57018;50.278;19.134;2023-09-19T00:58:45;26.00;24.00;16.00
69746;PMS7003;57018;50.278;19.134;2023-09-19T01:01:16;32.00;25.00;16.00
69746;PMS7003;57018;50.278;19.134;2023-09-19T01:03:46;23.33;22.33;14.67
69746;PMS7003;57018;50.278;19.134;2023-09-19T01:06:16;26.50;26.50;18.00
69746;PMS7003;57018;50.278;19.134;2023-09-19T01:08:46;26.00;26.00;18.00
69746;PMS7003;57018;50.278;19.134;2023-09-19T01:11:18;23.67;23.67;15.67
69746;PMS7003;57018;50.278;19.134;2023-09-19T01:13:56;23.50;22.50;14.25
69746;PMS7003;57018;50.278;19.134;2023-09-19T01:16:35;29.50;24.50;16.00
69746;PMS7003;57018;50.278;19.134;2023-09-19T01:19:20;26.00;23.00;17.00
69746;PMS7003;57018;50.278;19.134;2023-09-19T01:22:14;24.67;22.00;16.33
69746;PMS7003;57018;50.278;19.134;2023-09-19T01:24:54;25.50;24.00;15.50
69746;PMS7003;57018;50.278;19.134;2023-09-19T01:30:44;26.00;26.00;17.00
69746;PMS7003;57018;50.278;19.134;2023-09-19T01:33:16;28.50;28.50;17.50
69746;PMS7003;57018;50.278;19.134;2023-09-19T01:35:47;29.00;28.00;19.00
69746;PMS7003;57018;50.278;19.134;2023-09-19T01:38:17;28.50;27.00;17.00
69746;PMS7003;57018;50.278;19.134;2023-09-19T01:40:48;29.00;29.00;18.00
69746;PMS7003;57018;50.278;19.134;2023-09-19T01:43:27;21.50;19.50;12.50
69746;PMS7003;57018;50.278;19.134;2023-09-19T01:46:04;24.00;21.00;16.00
69746;PMS7003;57018;50.278;19.134;2023-09-19T01:48:40;27.00;24.00;16.00
69746;PMS7003;57018;50.278;19.134;2023-09-19T01:51:17;28.00;28.00;19.00
69746;PMS7003;57018;50.278;19.134;2023-09-19T01:54:00;31.50;31.00;21.00
69746;PMS7003;57018;50.278;19.134;2023-09-19T01:56:37;27.50;24.50;17.00
69746;PMS7003;57018;50.278;19.134;2023-09-19T01:59:13;30.00;28.50;19.00
69746;PMS7003;57018;50.278;19.134;2023-09-19T02:01:54;28.00;27.00;18.00
69746;PMS7003;57018;50.278;19.134;2023-09-19T02:04:25;32.00;30.00;17.50
69746;PMS7003;57018;50.278;19.134;2023-09-19T02:06:55;32.00;32.00;20.00
69746;PMS7003;57018;50.278;19.134;2023-09-19T02:09:26;28.67;27.33;18.33
69746;PMS7003;57018;50.278;19.134;2023-09-19T02:11:56;26.00;24.00;17.00
69746;PMS7003;57018;50.278;19.134;2023-09-19T02:14:26;32.50;30.00;17.50
69746;PMS7003;57018;50.278;19.134;2023-09-19T02:16:56;29.67;29.67;18.33
69746;PMS7003;57018;50.278;19.134;2023-09-19T02:19:26;28.00;24.00;21.00
69746;PMS7003;57018;50.278;19.134;2023-09-19T02:21:57;27.00;25.00;18.00
69746;PMS7003;57018;50.278;19.134;2023-09-19T02:24:30;31.00;28.00;17.00
69746;PMS7003;57018;50.278;19.134;2023-09-19T02:26:59;36.00;30.00;18.00
69746;PMS7003;57018;50.278;19.134;2023-09-19T02:29:31;36.00;34.50;20.50
69746;PMS7003;57018;50.278;19.134;2023-09-19T02:32:02;31.00;28.50;18.50
69746;PMS7003;57018;50.278;19.134;2023-09-19T02:34:33;29.50;24.50;17.50
69746;PMS7003;57018;50.278;19.134;2023-09-19T02:37:03;28.00;28.00;19.00
69746;PMS7003;57018;50.278;19.134;2023-09-19T02:39:35;30.00;29.50;20.50
69746;PMS7003;57018;50.278;19.134;2023-09-19T02:42:06;31.00;31.00;20.00
69746;PMS7003;57018;50.278;19.134;2023-09-19T02:44:35;34.00;30.00;17.00
69746;PMS7003;57018;50.278;19.134;2023-09-19T02:47:07;31.50;28.00;17.50
69746;PMS7003;57018;50.278;19.134;2023-09-19T02:49:36;32.00;30.50;18.50
69746;PMS7003;57018;50.278;19.134;2023-09-19T02:52:06;23.25;22.75;16.00
69746;PMS7003;57018;50.278;19.134;2023-09-19T02:54:38;29.50;26.00;17.50
69746;PMS7003;57018;50.278;19.134;2023-09-19T02:57:08;31.50;31.50;18.50
69746;PMS7003;57018;50.278;19.134;2023-09-19T02:59:38;30.00;29.50;20.50
69746;PMS7003;57018;50.278;19.134;2023-09-19T03:02:09;31.00;26.00;19.00
69746;PMS7003;57018;50.278;19.134;2023-09-19T03:04:39;26.33;26.33;20.67
69746;PMS7003;57018;50.278;19.134;2023-09-19T03:07:09;31.00;27.00;18.00
69746;PMS7003;57018;50.278;19.134;2023-09-19T03:09:38;25.50;24.50;17.00
69746;PMS7003;57018;50.278;19.134;2023-09-19T03:12:09;35.00;29.50;18.00
69746;PMS7003;57018;50.278;19.134;2023-09-19T03:14:43;30.00;29.00;19.00
69746;PMS7003;57018;50.278;19.134;2023-09-19T03:17:13;29.00;25.25;18.25
69746;PMS7003;57018;50.278;19.134;2023-09-19T03:19:43;27.00;25.00;17.00
69746;PMS7003;57018;50.278;19.134;2023-09-19T03:22:14;20.00;20.00;13.00
69746;PMS7003;57018;50.278;19.134;2023-09-19T03:24:45;21.00;21.00;14.00
69746;PMS7003;57018;50.278;19.134;2023-09-19T03:27:14;26.00;24.00;18.00
69746;PMS7003;57018;50.278;19.134;2023-09-19T03:29:44;29.00;26.00;17.00
69746;PMS7003;57018;50.278;19.134;2023-09-19T03:32:14;27.00;24.00;18.00
69746;PMS7003;57018;50.278;19.134;2023-09-19T03:34:44;29.00;27.00;16.00
69746;PMS7003;57018;50.278;19.134;2023-09-19T03:37:15;26.00;26.00;17.00
69746;PMS7003;57018;50.278;19.134;2023-09-19T03:39:46;29.50;25.50;17.50
69746;PMS7003;57018;50.278;19.134;2023-09-19T03:42:15;31.00;30.00;19.00
69746;PMS7003;57018;50.278;19.134;2023-09-19T03:44:52;31.00;27.00;20.00
69746;PMS7003;57018;50.278;19.134;2023-09-19T03:47:22;30.00;27.33;16.00
69746;PMS7003;57018;50.278;19.134;2023-09-19T03:49:52;31.00;30.00;19.00
69746;PMS7003;57018;50.278;19.134;2023-09-19T03:52:22;34.50;28.50;19.00
69746;PMS7003;57018;50.278;19.134;2023-09-19T03:54:52;30.00;26.00;19.00
69746;PMS7003;57018;50.278;19.134;2023-09-19T03:57:22;30.50;30.50;21.50
69746;PMS7003;57018;50.278;19.134;2023-09-19T03:59:52;31.00;30.00;18.00
69746;PMS7003;57018;50.278;19.134;2023-09-19T04:02:23;33.00;28.00;17.00
69746;PMS7003;57018;50.278;19.134;2023-09-19T04:04:53;29.50;28.00;19.00
69746;PMS7003;57018;50.278;19.134;2023-09-19T04:07:23;28.50;24.50;20.50
69746;PMS7003;57018;50.278;19.134;2023-09-19T04:09:55;34.00;31.00;17.50
69746;PMS7003;57018;50.278;19.134;2023-09-19T04:12:25;30.00;28.50;20.50
69746;PMS7003;57018;50.278;19.134;2023-09-19T04:14:55;28.50;28.50;19.50
69746;PMS7003;57018;50.278;19.134;2023-09-19T04:17:25;36.00;32.00;19.00
69746;PMS7003;57018;50.278;19.134;2023-09-19T04:19:55;33.50;28.50;19.50
69746;PMS7003;57018;50.278;19.134;2023-09-19T04:22:25;32.00;30.00;21.00
69746;PMS7003;57018;50.278;19.134;2023-09-19T04:24:55;35.50;32.50;21.00
69746;PMS7003;57018;50.278;19.134;2023-09-19T04:27:24;35.00;31.00;20.00
69746;PMS7003;57018;50.278;19.134;2023-09-19T04:29:54;37.50;31.50;20.50
69746;PMS7003;57018;50.278;19.134;2023-09-19T04:32:25;40.67;29.67;18.00
69746;PMS7003;57018;50.278;19.134;2023-09-19T04:34:59;34.67;31.00;21.00
69746;PMS7003;57018;50.278;19.134;2023-09-19T04:37:32;31.50;31.00;21.50
69746;PMS7003;57018;50.278;19.134;2023-09-19T04:40:02;39.00;31.50;19.50
69746;PMS7003;57018;50.278;19.134;2023-09-19T04:42:33;37.00;32.00;21.00
69746;PMS7003;57018;50.278;19.134;2023-09-19T04:45:04;35.00;33.00;22.00
69746;PMS7003;57018;50.278;19.134;2023-09-19T04:47:36;41.00;37.00;25.00
69746;PMS7003;57018;50.278;19.134;2023-09-19T04:50:09;44.00;35.00;21.67
69746;PMS7003;57018;50.278;19.134;2023-09-19T04:52:41;37.67;32.67;21.67
69746;PMS7003;57018;50.278;19.134;2023-09-19T04:55:11;34.50;31.00;21.50
69746;PMS7003;57018;50.278;19.134;2023-09-19T04:57:44;37.00;35.00;21.50
69746;PMS7003;57018;50.278;19.134;2023-09-19T05:00:16;35.00;32.00;22.00
69746;PMS7003;57018;50.278;19.134;2023-09-19T05:02:50;40.00;35.00;24.00
69746;PMS7003;57018;50.278;19.134;2023-09-19T05:05:21;41.00;33.00;20.00
69746;PMS7003;57018;50.278;19.134;2023-09-19T05:07:52;38.00;33.00;21.50
69746;PMS7003;57018;50.278;19.134;2023-09-19T05:10:22;40.00;37.00;22.00
69746;PMS7003;57018;50.278;19.134;2023-09-19T05:12:53;39.00;32.00;21.00
69746;PMS7003;57018;50.278;19.134;2023-09-19T05:15:23;45.00;34.00;22.00
69746;PMS7003;57018;50.278;19.134;2023-09-19T05:17:53;33.50;30.50;19.00
69746;PMS7003;57018;50.278;19.134;2023-09-19T05:20:23;49.00;39.00;25.00
69746;PMS7003;57018;50.278;19.134;2023-09-19T05:22:59;44.00;37.00;23.00
69746;PMS7003;57018;50.278;19.134;2023-09-19T05:25:32;42.00;34.00;23.00
69746;PMS7003;57018;50.278;19.134;2023-09-19T05:28:04;37.00;34.00;22.00
69746;PMS7003;57018;50.278;19.134;2023-09-19T05:30:34;42.50;35.00;24.00
69746;PMS7003;57018;50.278;19.134;2023-09-19T05:33:05;44.67;36.33;22.67
69746;PMS7003;57018;50.278;19.134;2023-09-19T05:35:35;37.50;34.00;22.50
69746;PMS7003;57018;50.278;19.134;2023-09-19T05:38:06;37.00;33.00;22.00
69746;PMS7003;57018;50.278;19.134;2023-09-19T05:40:38;43.00;38.00;24.50
69746;PMS7003;57018;50.278;19.134;2023-09-19T05:43:09;50.33;39.33;24.67
69746;PMS7003;57018;50.278;19.134;2023-09-19T05:45:41;42.50;37.50;24.00
69746;PMS7003;57018;50.278;19.134;2023-09-19T05:48:13;40.00;36.00;22.00
69746;PMS7003;57018;50.278;19.134;2023-09-19T05:50:43;45.00;37.50;24.00
69746;PMS7003;57018;50.278;19.134;2023-09-19T05:53:15;39.00;35.50;23.50
69746;PMS7003;57018;50.278;19.134;2023-09-19T05:55:45;41.00;35.00;22.00
69746;PMS7003;57018;50.278;19.134;2023-09-19T05:58:16;41.00;34.00;23.00
69746;PMS7003;57018;50.278;19.134;2023-09-19T06:00:46;46.50;38.00;24.00
69746;PMS7003;57018;50.278;19.134;2023-09-19T06:03:16;48.50;40.50;25.00
69746;PMS7003;57018;50.278;19.134;2023-09-19T06:05:47;43.00;35.00;23.00
69746;PMS7003;57018;50.278;19.134;2023-09-19T06:08:18;40.00;35.50;23.00
69746;PMS7003;57018;50.278;19.134;2023-09-19T06:10:48;49.00;40.00;26.00
69746;PMS7003;57018;50.278;19.134;2023-09-19T06:13:19;48.00;39.50;26.00
69746;PMS7003;57018;50.278;19.134;2023-09-19T06:15:48;40.00;34.00;21.00
69746;PMS7003;57018;50.278;19.134;2023-09-19T06:18:18;41.00;35.00;21.00
69746;PMS7003;57018;50.278;19.134;2023-09-19T06:20:48;34.50;29.00;19.00
69746;PMS7003;57018;50.278;19.134;2023-09-19T06:23:18;40.00;34.00;23.00
69746;PMS7003;57018;50.278;19.134;2023-09-19T06:25:51;34.00;32.33;22.33
69746;PMS7003;57018;50.278;19.134;2023-09-19T06:28:21;39.00;34.00;23.00
69746;PMS7003;57018;50.278;19.134;2023-09-19T06:30:52;42.50;34.00;23.00
69746;PMS7003;57018;50.278;19.134;2023-09-19T06:33:22;39.00;34.00;21.00
69746;PMS7003;57018;50.278;19.134;2023-09-19T06:35:54;35.00;32.00;21.00
69746;PMS7003;57018;50.278;19.134;2023-09-19T06:38:27;36.50;31.50;18.50
69746;PMS7003;57018;50.278;19.134;2023-09-19T06:40:56;34.00;32.00;21.00
69746;PMS7003;57018;50.278;19.134;2023-09-19T06:43:28;35.50;30.00;18.50
69746;PMS7003;57018;50.278;19.134;2023-09-19T06:46:00;26.00;24.00;18.00
69746;PMS7003;57018;50.278;19.134;2023-09-19T06:48:34;34.00;29.00;19.00
69746;PMS7003;57018;50.278;19.134;2023-09-19T06:51:03;28.00;24.00;17.00
69746;PMS7003;57018;50.278;19.134;2023-09-19T06:53:35;29.50;29.00;19.50
69746;PMS7003;57018;50.278;19.134;2023-09-19T06:58:36;29.50;22.00;16.00
69746;PMS7003;57018;50.278;19.134;2023-09-19T07:01:06;29.00;28.00;18.00
69746;PMS7003;57018;50.278;19.134;2023-09-19T07:03:36;30.00;29.00;19.00
69746;PMS7003;57018;50.278;19.134;2023-09-19T07:06:07;31.00;29.00;18.00
69746;PMS7003;57018;50.278;19.134;2023-09-19T07:08:36;25.00;22.00;15.00
69746;PMS7003;57018;50.278;19.134;2023-09-19T07:11:06;31.00;28.00;18.50
69746;PMS7003;57018;50.278;19.134;2023-09-19T07:13:37;25.00;23.00;14.00
69746;PMS7003;57018;50.278;19.134;2023-09-19T07:16:07;22.50;21.00;14.50
69746;PMS7003;57018;50.278;19.134;2023-09-19T07:18:54;26.00;21.00;15.00
69746;PMS7003;57018;50.278;19.134;2023-09-19T07:21:24;29.00;24.00;15.00
69746;PMS7003;57018;50.278;19.134;2023-09-19T07:23:54;22.00;19.00;11.00
69746;PMS7003;57018;50.278;19.134;2023-09-19T07:26:23;24.00;24.00;15.00
69746;PMS7003;57018;50.278;19.134;2023-09-19T07:28:53;18.00;18.00;12.50
69746;PMS7003;57018;50.278;19.134;2023-09-19T07:31:24;23.00;21.00;14.00
69746;PMS7003;57018;50.278;19.134;2023-09-19T07:33:53;25.00;22.00;15.00
69746;PMS7003;57018;50.278;19.134;2023-09-19T07:36:23;17.00;16.00;10.00
69746;PMS7003;57018;50.278;19.134;2023-09-19T07:38:53;19.00;16.00;11.50
69746;PMS7003;57018;50.278;19.134;2023-09-19T07:43:52;20.00;19.00;11.00
69746;PMS7003;57018;50.278;19.134;2023-09-19T07:46:22;15.00;13.67;8.00
69746;PMS7003;57018;50.278;19.134;2023-09-19T07:48:52;16.50;15.50;10.00
69746;PMS7003;57018;50.278;19.134;2023-09-19T07:51:22;17.00;15.50;10.00
69746;PMS7003;57018;50.278;19.134;2023-09-19T07:53:52;15.50;13.50;8.50
69746;PMS7003;57018;50.278;19.134;2023-09-19T07:56:22;19.00;17.00;11.00
69746;PMS7003;57018;50.278;19.134;2023-09-19T07:58:53;14.00;14.00;9.00
69746;PMS7003;57018;50.278;19.134;2023-09-19T08:01:24;16.00;14.00;9.00
69746;PMS7003;57018;50.278;19.134;2023-09-19T08:03:54;18.00;16.33;9.33
69746;PMS7003;57018;50.278;19.134;2023-09-19T08:06:24;16.00;14.00;8.50
69746;PMS7003;57018;50.278;19.134;2023-09-19T08:08:56;14.00;12.00;8.00
69746;PMS7003;57018;50.278;19.134;2023-09-19T08:11:27;14.50;14.50;10.00
69746;PMS7003;57018;50.278;19.134;2023-09-19T08:13:58;23.67;19.67;12.00
69746;PMS7003;57018;50.278;19.134;2023-09-19T08:16:27;24.00;22.00;13.00
69746;PMS7003;57018;50.278;19.134;2023-09-19T08:18:57;19.50;17.50;12.50
69746;PMS7003;57018;50.278;19.134;2023-09-19T08:21:27;16.00;15.00;11.50
69746;PMS7003;57018;50.278;19.134;2023-09-19T08:23:57;12.50;12.25;8.25
69746;PMS7003;57018;50.278;19.134;2023-09-19T08:26:29;15.50;14.00;9.00
69746;PMS7003;57018;50.278;19.134;2023-09-19T08:28:59;12.00;9.00;7.00
69746;PMS7003;57018;50.278;19.134;2023-09-19T08:31:32;8.00;8.00;5.00
69746;PMS7003;57018;50.278;19.134;2023-09-19T08:34:02;9.00;7.00;5.50
69746;PMS7003;57018;50.278;19.134;2023-09-19T08:36:33;8.50;8.50;6.00
69746;PMS7003;57018;50.278;19.134;2023-09-19T08:39:04;7.50;7.50;6.00
69746;PMS7003;57018;50.278;19.134;2023-09-19T08:41:35;7.25;5.50;4.00
69746;PMS7003;57018;50.278;19.134;2023-09-19T08:44:05;8.00;8.00;6.00
69746;PMS7003;57018;50.278;19.134;2023-09-19T08:46:36;6.00;6.00;5.00
69746;PMS7003;57018;50.278;19.134;2023-09-19T08:49:13;8.50;6.00;4.00
69746;PMS7003;57018;50.278;19.134;2023-09-19T08:51:56;6.00;6.00;5.00
69746;PMS7003;57018;50.278;19.134;2023-09-19T08:54:35;7.33;6.33;5.00
69746;PMS7003;57018;50.278;19.134;2023-09-19T08:57:08;8.00;7.00;4.50
69746;PMS7003;57018;50.278;19.134;2023-09-19T08:59:39;10.00;10.00;6.33
69746;PMS7003;57018;50.278;19.134;2023-09-19T09:02:12;8.00;7.00;5.00
69746;PMS7003;57018;50.278;19.134;2023-09-19T09:04:46;7.50;7.50;5.00
69746;PMS7003;57018;50.278;19.134;2023-09-19T09:07:18;6.00;6.00;4.00
69746;PMS7003;57018;50.278;19.134;2023-09-19T09:09:49;9.25;7.25;5.25
69746;PMS7003;57018;50.278;19.134;2023-09-19T09:12:19;7.00;6.00;4.00
69746;PMS7003;57018;50.278;19.134;2023-09-19T09:15:11;8.25;7.75;5.00
69746;PMS7003;57018;50.278;19.134;2023-09-19T09:17:43;8.00;6.00;5.00
69746;PMS7003;57018;50.278;19.134;2023-09-19T09:20:17;13.33;13.33;8.33
69746;PMS7003;57018;50.278;19.134;2023-09-19T09:22:54;7.50;7.50;6.00
69746;PMS7003;57018;50.278;19.134;2023-09-19T09:25:46;11.00;10.00;7.00
69746;PMS7003;57018;50.278;19.134;2023-09-19T09:28:20;10.00;10.00;7.00
69746;PMS7003;57018;50.278;19.134;2023-09-19T09:30:51;10.00;10.00;7.00
69746;PMS7003;57018;50.278;19.134;2023-09-19T09:33:21;10.50;10.50;7.00
69746;PMS7003;57018;50.278;19.134;2023-09-19T09:35:52;10.50;10.50;8.50
69746;PMS7003;57018;50.278;19.134;2023-09-19T09:38:25;9.00;9.00;7.00
69746;PMS7003;57018;50.278;19.134;2023-09-19T09:40:59;17.00;16.50;11.00
69746;PMS7003;57018;50.278;19.134;2023-09-19T09:43:33;13.00;12.00;8.50
69746;PMS7003;57018;50.278;19.134;2023-09-19T09:46:09;12.50;11.50;9.00
69746;PMS7003;57018;50.278;19.134;2023-09-19T09:48:59;12.00;9.00;7.00
69746;PMS7003;57018;50.278;19.134;2023-09-19T09:51:43;13.00;13.00;9.00
69746;PMS7003;57018;50.278;19.134;2023-09-19T09:54:24;13.00;12.00;8.00
69746;PMS7003;57018;50.278;19.134;2023-09-19T09:57:01;16.33;13.67;10.33
69746;PMS7003;57018;50.278;19.134;2023-09-19T09:59:48;17.33;13.67;11.00
69746;PMS7003;57018;50.278;19.134;2023-09-19T10:02:21;16.00;15.00;9.00
69746;PMS7003;57018;50.278;19.134;2023-09-19T10:04:59;26.00;23.00;14.00
69746;PMS7003;57018;50.278;19.134;2023-09-19T10:07:57;21.00;17.00;12.00
69746;PMS7003;57018;50.278;19.134;2023-09-19T10:10:45;19.00;16.50;10.00
69746;PMS7003;57018;50.278;19.134;2023-09-19T10:13:21;15.50;13.50;8.00
69746;PMS7003;57018;50.278;19.134;2023-09-19T10:15:54;13.00;13.00;9.00
69746;PMS7003;57018;50.278;19.134;2023-09-19T10:18:27;12.00;9.00;7.00
69746;PMS7003;57018;50.278;19.134;2023-09-19T10:20:59;12.00;11.00;7.00
69746;PMS7003;57018;50.278;19.134;2023-09-19T10:23:33;13.00;12.00;8.00
69746;PMS7003;57018;50.278;19.134;2023-09-19T10:26:04;14.00;14.00;9.00
69746;PMS7003;57018;50.278;19.134;2023-09-19T10:28:36;10.25;10.25;7.50
69746;PMS7003;57018;50.278;19.134;2023-09-19T10:31:07;13.00;13.00;7.50
69746;PMS7003;57018;50.278;19.134;2023-09-19T10:33:41;10.33;10.33;6.67
69746;PMS7003;57018;50.278;19.134;2023-09-19T10:36:12;18.50;16.50;12.00
69746;PMS7003;57018;50.278;19.134;2023-09-19T10:38:44;21.50;20.00;14.50
69746;PMS7003;57018;50.278;19.134;2023-09-19T10:41:15;13.00;10.00;6.00
69746;PMS7003;57018;50.278;19.134;2023-09-19T10:43:48;20.00;20.00;12.00
69746;PMS7003;57018;50.278;19.134;2023-09-19T10:46:21;14.00;12.00;9.33
69746;PMS7003;57018;50.278;19.134;2023-09-19T10:48:52;14.50;11.00;8.00
69746;PMS7003;57018;50.278;19.134;2023-09-19T10:51:28;10.50;10.00;6.00
69746;PMS7003;57018;50.278;19.134;2023-09-19T10:54:08;12.00;8.00;6.50
69746;PMS7003;57018;50.278;19.134;2023-09-19T10:56:44;13.00;12.50;9.00
69746;PMS7003;57018;50.278;19.134;2023-09-19T10:59:17;13.00;12.00;8.00
69746;PMS7003;57018;50.278;19.134;2023-09-19T11:01:48;13.00;12.00;9.00
69746;PMS7003;57018;50.278;19.134;2023-09-19T11:04:22;16.50;12.50;10.00
69746;PMS7003;57018;50.278;19.134;2023-09-19T11:07:02;12.00;11.50;7.50
69746;PMS7003;57018;50.278;19.134;2023-09-19T11:09:48;11.00;8.00;7.00
69746;PMS7003;57018;50.278;19.134;2023-09-19T11:24:29;12.50;12.00;9.00
69746;PMS7003;57018;50.278;19.134;2023-09-19T11:27:13;13.50;13.50;9.00
69746;PMS7003;57018;50.278;19.134;2023-09-19T11:29:44;12.00;12.00;9.00
69746;PMS7003;57018;50.278;19.134;2023-09-19T11:32:16;15.00;14.00;9.00
69746;PMS7003;57018;50.278;19.134;2023-09-19T11:35:09;16.00;16.00;11.00
69746;PMS7003;57018;50.278;19.134;2023-09-19T11:40:37;14.50;14.50;10.50
69746;PMS7003;57018;50.278;19.134;2023-09-19T11:46:05;21.00;18.00;10.00
69746;PMS7003;57018;50.278;19.134;2023-09-19T11:48:49;15.00;15.00;10.00
69746;PMS7003;57018;50.278;19.134;2023-09-19T11:51:23;11.00;10.00;8.50
69746;PMS7003;57018;50.278;19.134;2023-09-19T11:53:56;14.00;11.00;8.00
69746;PMS7003;57018;50.278;19.134;2023-09-19T11:56:28;7.50;7.00;3.50
69746;PMS7003;57018;50.278;19.134;2023-09-19T11:58:58;11.00;11.00;6.00
69746;PMS7003;57018;50.278;19.134;2023-09-19T12:01:31;12.00;11.50;8.00
69746;PMS7003;57018;50.278;19.134;2023-09-19T12:04:02;7.00;7.00;6.00
69746;PMS7003;57018;50.278;19.134;2023-09-19T12:06:33;10.00;10.00;8.00
69746;PMS7003;57018;50.278;19.134;2023-09-19T12:09:05;12.00;10.00;6.00
69746;PMS7003;57018;50.278;19.134;2023-09-19T12:11:43;14.00;12.00;8.00
69746;PMS7003;57018;50.278;19.134;2023-09-19T12:14:22;12.50;10.00;8.00
69746;PMS7003;57018;50.278;19.134;2023-09-19T12:16:56;9.00;8.50;5.50
69746;PMS7003;57018;50.278;19.134;2023-09-19T12:19:29;12.00;12.00;9.00
69746;PMS7003;57018;50.278;19.134;2023-09-19T12:21:59;17.00;13.50;10.50
69746;PMS7003;57018;50.278;19.134;2023-09-19T12:24:31;12.00;9.00;8.00
69746;PMS7003;57018;50.278;19.134;2023-09-19T12:27:05;9.00;8.00;7.00
69746;PMS7003;57018;50.278;19.134;2023-09-19T12:29:43;8.00;8.00;6.00
69746;PMS7003;57018;50.278;19.134;2023-09-19T12:32:15;12.33;12.33;9.00
69746;PMS7003;57018;50.278;19.134;2023-09-19T12:34:54;8.00;6.00;4.00
69746;PMS7003;57018;50.278;19.134;2023-09-19T12:37:26;11.00;9.00;6.00
69746;PMS7003;57018;50.278;19.134;2023-09-19T12:40:04;8.50;7.00;5.00
69746;PMS7003;57018;50.278;19.134;2023-09-19T12:42:44;9.00;9.00;6.50
69746;PMS7003;57018;50.278;19.134;2023-09-19T12:45:15;11.00;11.00;8.00
69746;PMS7003;57018;50.278;19.134;2023-09-19T12:51:05;14.00;13.50;8.50
69746;PMS7003;57018;50.278;19.134;2023-09-19T12:53:38;14.50;11.50;8.25
69746;PMS7003;57018;50.278;19.134;2023-09-19T12:56:10;20.00;20.00;13.00
69746;PMS7003;57018;50.278;19.134;2023-09-19T12:58:52;14.00;14.00;9.00
69746;PMS7003;57018;50.278;19.134;2023-09-19T13:01:23;15.50;14.00;9.50
69746;PMS7003;57018;50.278;19.134;2023-09-19T13:04:16;16.00;16.00;11.50
69746;PMS7003;57018;50.278;19.134;2023-09-19T13:06:54;12.00;12.00;9.00
69746;PMS7003;57018;50.278;19.134;2023-09-19T13:09:27;13.50;12.00;8.00
69746;PMS7003;57018;50.278;19.134;2023-09-19T13:12:01;15.00;12.50;9.00
69746;PMS7003;57018;50.278;19.134;2023-09-19T13:14:33;16.00;14.00;11.00
69746;PMS7003;57018;50.278;19.134;2023-09-19T13:17:14;13.00;11.00;8.00
69746;PMS7003;57018;50.278;19.134;2023-09-19T13:19:51;15.00;13.00;9.00
69746;PMS7003;57018;50.278;19.134;2023-09-19T13:22:40;12.33;12.00;9.33
69746;PMS7003;57018;50.278;19.134;2023-09-19T13:25:13;14.00;12.00;8.33
69746;PMS7003;57018;50.278;19.134;2023-09-19T13:27:47;11.50;11.00;8.50
69746;PMS7003;57018;50.278;19.134;2023-09-19T13:30:18;15.00;13.00;8.00
69746;PMS7003;57018;50.278;19.134;2023-09-19T13:35:38;12.00;12.00;10.00
69746;PMS7003;57018;50.278;19.134;2023-09-19T13:38:08;8.00;8.00;7.00
69746;PMS7003;57018;50.278;19.134;2023-09-19T13:40:38;8.00;8.00;5.50
69746;PMS7003;57018;50.278;19.134;2023-09-19T13:43:09;11.00;9.00;8.00
69746;PMS7003;57018;50.278;19.134;2023-09-19T13:45:40;8.50;8.50;6.00
69746;PMS7003;57018;50.278;19.134;2023-09-19T13:48:10;9.00;9.00;5.00
69746;PMS7003;57018;50.278;19.134;2023-09-19T13:50:40;16.50;16.00;10.00
69746;PMS7003;57018;50.278;19.134;2023-09-19T13:53:10;8.00;7.33;5.33
69746;PMS7003;57018;50.278;19.134;2023-09-19T13:55:39;6.67;6.00;4.67
69746;PMS7003;57018;50.278;19.134;2023-09-19T14:00:40;6.00;6.00;5.00
69746;PMS7003;57018;50.278;19.134;2023-09-19T14:03:10;11.00;11.00;7.00
69746;PMS7003;57018;50.278;19.134;2023-09-19T14:05:41;7.00;7.00;5.00
69746;PMS7003;57018;50.278;19.134;2023-09-19T14:08:11;11.00;11.00;8.00
69746;PMS7003;57018;50.278;19.134;2023-09-19T14:10:41;10.00;10.00;8.00
69746;PMS7003;57018;50.278;19.134;2023-09-19T14:13:11;10.00;10.00;7.00
69746;PMS7003;57018;50.278;19.134;2023-09-19T14:15:50;9.00;9.00;7.00
69746;PMS7003;57018;50.278;19.134;2023-09-19T14:18:20;8.00;8.00;6.00
69746;PMS7003;57018;50.278;19.134;2023-09-19T14:20:50;7.50;6.50;5.50
69746;PMS7003;57018;50.278;19.134;2023-09-19T14:23:20;6.67;6.67;5.00
69746;PMS7003;57018;50.278;19.134;2023-09-19T14:25:50;9.00;8.00;5.50
69746;PMS7003;57018;50.278;19.134;2023-09-19T14:28:35;9.50;8.50;6.00
69746;PMS7003;57018;50.278;19.134;2023-09-19T14:31:06;6.00;6.00;4.00
69746;PMS7003;57018;50.278;19.134;2023-09-19T14:33:57;9.33;8.67;5.00
69746;PMS7003;57018;50.278;19.134;2023-09-19T14:36:44;9.00;9.00;5.50
69746;PMS7003;57018;50.278;19.134;2023-09-19T14:39:15;10.00;8.00;6.00
69746;PMS7003;57018;50.278;19.134;2023-09-19T14:41:46;9.00;8.00;7.00
69746;PMS7003;57018;50.278;19.134;2023-09-19T14:44:16;11.50;9.00;6.00
69746;PMS7003;57018;50.278;19.134;2023-09-19T14:46:46;7.50;7.50;6.00